Aérodrome :
LOGIN :

S'inscrire | Disclaimer

   EN    FR    IT 

 










Légende :    VFR   VFR Marginal   IFR   IFR Intensif   IFR Très Intensif
Visi : 
Plafond : 
>= 8 km
>= 3000ft
5 à 8 km
1000 à 3000 ft
1500m à 5 km
500 à 1000 ft
800 à 1500m
200 à 500 ft
< 800m
< 200 ft
Symboles :   Orages  Brouillard  Fortes neiges  Fortes précipitations  Vent > 20 kt
SIGMETs :   Divers  Orages  Givrage  Turbulence  Onde Orograph.  Cendres Volcan.







- Altitude de l'aérodrome : 1213 ft
- Code IATA : SCQ


LEST - Santiago de Compostela

DERNIER METAR :
  • 201430Z 21008KT 180V260 9999 FEW020 21/15 Q1020 NOSIG

METARs EXPIRÉS :
  • 201400Z 25007KT 210V300 9999 FEW018 21/15 Q1021 NOSIG
  • 201330Z 23007KT 170V290 9999 FEW015 21/15 Q1020 NOSIG
  • 201300Z 23005KT 170V300 9999 SCT014 20/15 Q1021 NOSIG
  • 201230Z 27006KT 210V330 9999 BKN010 19/16 Q1021 NOSIG
  • 201200Z 25006KT 210V320 9000 FEW005 BKN008 19/16 Q1021 NOSIG

TAF AMD TAF LEST
Valide du 20 à 12h jusqu'au 21 à 12h UTC


201244Z 2012/2112 VRB05KT 9999 SCT015 TX23/2014Z TN14/2107Z
TEMPO 2012/2020 23010KT
TEMPO 2012/2021 BKN010
TEMPO 2021/2109 3000 BR BKN010
TEMPO 2021/2109 0800 BCFG BKN002
PROB40
TEMPO 2100/2108 0350 FG VV001
PROB40
TEMPO 2103/2112 1500 -RADZ BR BKN005
Pas de NOTAMs connus pour ce terrain.
1 SIGMET publié pour la FIR Madrid (LECM) :
 
Orages noyés dans la masse
LECM SIGMET 1 VALID 201339/201530 LEVA
LECM MADRID FIR/UIR EMBD TS OBS AT 1339Z WI N3953 W00603 - N41 W00305 - N4119 W00328 - N4039 W00550 - N3953 W00603 TOP FL330 STNR NC=



MET'MAP, la Météo Aéronautique d'un coup d'oeil ! - Copyright ORBIFLY Décembre 2007 - Disclaimer

ORBIFLY MET'MAP TEAM :

Programmation & Développement : Alexandra Zaïnal
Conception & Développement : Baudouin d'Aumeries
Co-Programmation & Développement : Marc-Olivier Méhu
Soutien technique & logistique : Manuel Goepfert

Contact : metmap@orbifly.com




SOURCES & CREDITS :

   NOAA